読者です 読者をやめる 読者になる 読者になる

今朝の成田(2017/04/06)

JJP12/JA21JJ(A320)

AMX058/XA-AMR(B788)

THA640/HS-TUB(A388)

ANA832/JA616A(B763)

ANA818/JA840J(B788)

JJP40/JA18JJ(A320)

CPA524/B-HNN(B773)

VNL100/JA10VA(A320)

CPA006/B-LJC(B748)

FDX5391/N895FD(B77L)

NCA049/JA16KZ(B748)

JAL724/JA863J(B789)

FDX31/N855FD(B77L)

ANA814/JA619A(B763) with winglet

ANA179/JA820A(B788)

JAL740/JA845J(B788)

NCA105/JA05KZ(B744)

NCA228/JA06KZ(B744)

FDX15/N844FD(B77L)

CRK606/B-LPL(A320)

JAL752/JA836J(B788)

JAL726/JA867J(B789)

MAS80/9M-MXT(B738)

PAC240/N644GT(B763) with winglet

ALK454/4R-ALL(A333)

PAC213/N853GT(B748)

VNL300/JA08VA(A320)

HVN310/VN-A865(B789)

FDX60/N851FD(B77L)

RJAA 052100Z 18006KT 9999 FEW030 BKN140 12/10 Q1025 NOSIG RMK 1CU030 6AC140 A3028

RJAA 052200Z 19008KT 9999 FEW030 15/11 Q1025 NOSIG

今朝の成田は晴れているようです。